Time;durP1;ratioP1;P1;durP2;ratioP2;P2;SDS_P1;SDS_P2;PMS_P1;PMS_P2;Temp;Humidity;BMP_temperature;BMP_pressure;BME280_temperature;BME280_humidity;BME280_pressure;Samples;Min_cycle;Max_cycle;Signal;HPM_P1;HPM_P2
2023/06/14 00:01:02;;;;;;;5.68;4.20;;;;;;;19.45;nan;36316.63;4973108;28;20205;-58
2023/06/14 00:03:28;;;;;;;5.40;3.80;;;;;;;19.74;nan;37737.81;4972673;28;20181;-57
2023/06/14 00:05:54;;;;;;;6.70;4.20;;;;;;;19.78;nan;37140.63;4972714;28;20231;-57
2023/06/14 00:08:21;;;;;;;5.47;3.80;;;;;;;19.72;nan;34689.56;4972417;28;20260;-58
2023/06/14 00:10:47;;;;;;;5.30;3.78;;;;;;;19.71;nan;30412.50;4972787;28;20173;-59
2023/06/14 00:13:12;;;;;;;5.55;3.55;;;;;;;19.37;nan;24810.56;4973175;28;20538;-58
2023/06/14 00:15:38;;;;;;;6.93;4.10;;;;;;;19.56;nan;29088.78;4972903;28;20224;-58
2023/06/14 00:18:04;;;;;;;7.88;4.35;;;;;;;19.41;nan;24812.66;4972663;28;20667;-57
2023/06/14 00:20:32;;;;;;;6.38;3.95;;;;;;;19.58;nan;21541.25;4972775;28;20205;-58
2023/06/14 00:22:58;;;;;;;6.05;3.88;;;;;;;19.41;nan;21205.75;4972535;28;20189;-56
2023/06/14 00:25:27;;;;;;;6.63;4.15;;;;;;;19.36;nan;17273.69;4972685;28;20193;-58
2023/06/14 00:27:53;;;;;;;8.02;4.18;;;;;;;19.69;nan;10090.44;4972663;28;20177;-56
2023/06/14 00:30:19;;;;;;;6.28;4.35;;;;;;;19.74;nan;7478.72;4973023;28;20201;-57
2023/06/14 00:32:45;;;;;;;5.50;4.00;;;;;;;19.86;nan;12383.94;4972701;28;20619;-58
2023/06/14 00:35:11;;;;;;;11.30;4.60;;;;;;;19.54;nan;10412.87;4972928;28;20174;-58
2023/06/14 00:37:37;;;;;;;5.57;4.00;;;;;;;19.33;nan;-1329.25;4976257;28;20727;-58
2023/06/14 00:40:04;;;;;;;6.32;4.28;;;;;;;19.58;nan;-3279.69;4976479;28;20174;-57
2023/06/14 00:42:29;;;;;;;6.82;4.22;;;;;;;19.44;nan;-1002.78;4976528;28;20291;-57
2023/06/14 00:44:55;;;;;;;5.70;4.18;;;;;;;19.49;nan;951.53;4976374;28;20177;-58
2023/06/14 00:47:20;;;;;;;6.85;4.25;;;;;;;19.75;nan;-1325.25;4976251;28;20640;-58
2023/06/14 00:49:55;;;;;;;7.15;4.50;;;;;;;19.45;nan;-1002.66;4975688;28;20637;-57
2023/06/14 00:52:24;;;;;;;7.80;4.45;;;;;;;19.32;nan;-5557.13;4976097;28;20616;-57
2023/06/14 00:54:49;;;;;;;5.72;4.10;;;;;;;19.75;nan;-4580.16;4976178;28;20239;-58
2023/06/14 00:57:15;;;;;;;6.00;4.15;;;;;;;19.71;nan;-5230.84;5001300;28;20642;-58
2023/06/14 00:59:46;;;;;;;7.20;4.57;;;;;;;19.44;nan;-5881.88;4978018;28;20189;-56
2023/06/14 01:02:14;;;;;;;6.05;4.40;;;;;;;19.33;nan;-8805.56;4995030;28;20199;-58
2023/06/14 01:04:41;;;;;;;8.27;4.53;;;;;;;19.26;nan;-9454.63;4995502;28;20184;-57
2023/06/14 01:07:28;;;;;;;5.20;3.72;;;;;;;19.66;nan;-8806.38;4995412;28;20535;-58
2023/06/14 01:10:02;;;;;;;7.03;4.53;;;;;;;19.62;nan;-10105.34;4995360;28;20180;-57
2023/06/14 01:12:38;;;;;;;6.68;4.18;;;;;;;19.58;nan;-10754.47;4995245;28;20264;-57
2023/06/14 01:15:05;;;;;;;6.65;4.35;;;;;;;19.59;nan;-10105.22;4995136;28;20188;-58
2023/06/14 01:17:31;;;;;;;5.93;4.10;;;;;;;19.56;nan;-10754.34;4995693;28;20189;-57
2023/06/14 01:20:09;;;;;;;6.72;4.60;;;;;;;19.58;nan;-10429.84;4995555;28;20203;-57
2023/06/14 01:22:35;;;;;;;5.95;4.22;;;;;;;19.59;nan;-10754.53;4995023;28;20169;-57
2023/06/14 01:25:01;;;;;;;5.45;4.30;;;;;;;19.40;nan;-13024.34;4994744;28;20187;-58
2023/06/14 01:27:29;;;;;;;9.63;5.03;;;;;;;19.46;nan;-12700.56;4994934;28;20168;-57
2023/06/14 01:29:59;;;;;;;5.45;4.13;;;;;;;19.20;nan;-12698.25;4995294;28;20267;-57
2023/06/14 01:32:26;;;;;;;7.53;4.47;;;;;;;19.55;nan;-12376.94;4994933;28;20173;-58
2023/06/14 01:34:51;;;;;;;6.43;4.28;;;;;;;19.09;nan;-13021.47;4994661;28;20200;-57
2023/06/14 01:37:19;;;;;;;7.25;4.65;;;;;;;19.30;nan;-13671.88;4994775;28;20216;-58
2023/06/14 01:39:45;;;;;;;7.43;4.70;;;;;;;19.25;nan;-14643.69;4994488;28;20212;-58
2023/06/14 01:42:13;;;;;;;6.43;4.18;;;;;;;18.97;nan;-14964.22;4994574;28;20640;-57
2023/06/14 01:44:41;;;;;;;6.30;4.38;;;;;;;18.89;nan;-15934.56;4994559;28;20184;-58
2023/06/14 01:47:07;;;;;;;13.07;4.47;;;;;;;19.06;nan;-15936.91;4994831;28;20181;-57
2023/06/14 01:49:35;;;;;;;6.85;4.55;;;;;;;19.06;nan;-14641.34;4994530;28;20674;-58
2023/06/14 01:52:00;;;;;;;6.30;4.30;;;;;;;19.33;nan;-13023.75;4994215;28;20184;-56
2023/06/14 01:54:27;;;;;;;6.15;4.32;;;;;;;19.14;nan;-14318.28;4994045;28;20725;-58
2023/06/14 01:56:52;;;;;;;5.80;3.72;;;;;;;19.27;nan;-13671.53;4994994;28;20172;-56
2023/06/14 01:59:18;;;;;;;7.55;4.30;;;;;;;19.02;nan;-13344.84;4994220;28;20180;-57
2023/06/14 02:01:44;;;;;;;6.50;4.45;;;;;;;19.05;nan;-13021.09;4994144;28;20235;-57
2023/06/14 02:04:10;;;;;;;5.80;4.07;;;;;;;19.14;nan;-14318.28;4976628;28;20179;-58
2023/06/14 02:06:35;;;;;;;5.43;3.80;;;;;;;18.92;nan;-13991.94;4994356;28;20267;-58
2023/06/14 02:09:01;;;;;;;6.07;4.20;;;;;;;19.17;nan;-13994.63;4994267;28;20264;-57
2023/06/14 02:11:26;;;;;;;6.22;4.30;;;;;;;19.04;nan;-13993.19;4994287;28;20181;-57
2023/06/14 02:13:52;;;;;;;6.78;4.22;;;;;;;19.17;nan;-12698.03;4994441;28;20307;-58
2023/06/14 02:16:18;;;;;;;5.85;4.13;;;;;;;19.15;nan;-13346.19;4994253;28;20173;-58
2023/06/14 02:18:43;;;;;;;5.97;4.10;;;;;;;18.92;nan;-13343.94;4992684;28;20199;-58
2023/06/14 02:21:08;;;;;;;6.35;4.13;;;;;;;19.17;nan;-13022.19;4993502;28;20204;-58
2023/06/14 02:23:34;;;;;;;8.10;4.32;;;;;;;19.12;nan;-13669.94;4993356;28;20584;-58
2023/06/14 02:25:59;;;;;;;7.20;4.43;;;;;;;18.95;nan;-13992.19;4993469;28;20177;-58
2023/06/14 02:28:25;;;;;;;6.63;4.32;;;;;;;19.01;nan;-13992.81;4993463;28;20175;-58
2023/06/14 02:30:50;;;;;;;5.53;4.20;;;;;;;18.59;nan;-14312.06;4993385;28;20180;-58
2023/06/14 02:33:17;;;;;;;5.45;3.75;;;;;;;18.47;nan;-14634.38;4993233;28;20558;-58
2023/06/14 02:35:42;;;;;;;6.07;4.05;;;;;;;18.81;nan;-14962.19;4993100;28;20204;-57
2023/06/14 02:38:08;;;;;;;6.50;4.32;;;;;;;18.93;nan;-14315.94;4975681;28;20209;-57
2023/06/14 02:40:33;;;;;;;7.53;4.22;;;;;;;18.81;nan;-13018.84;4993050;28;20290;-58
2023/06/14 02:42:59;;;;;;;5.47;3.95;;;;;;;18.59;nan;-13988.22;4993250;28;20665;-57
2023/06/14 02:45:25;;;;;;;5.97;3.95;;;;;;;18.88;nan;-13991.44;4993016;28;20239;-58
2023/06/14 02:47:51;;;;;;;5.53;3.78;;;;;;;18.89;nan;-13991.53;4993008;28;20183;-58
2023/06/14 02:50:17;;;;;;;5.13;4.05;;;;;;;18.65;nan;-13341.22;4992140;28;20561;-57
2023/06/14 02:52:44;;;;;;;5.45;3.97;;;;;;;18.80;nan;-13990.59;4993222;28;20216;-57
2023/06/14 02:55:10;;;;;;;6.13;4.00;;;;;;;18.85;nan;-13343.25;4993102;28;20173;-59
2023/06/14 02:57:35;;;;;;;8.73;4.32;;;;;;;18.78;nan;-13018.59;4993780;28;20261;-57
2023/06/14 03:00:00;;;;;;;5.57;4.03;;;;;;;18.62;nan;-13340.91;4992805;28;20184;-59
2023/06/14 03:02:26;;;;;;;6.78;4.68;;;;;;;18.48;nan;-14310.84;4993999;28;20181;-57
2023/06/14 03:04:51;;;;;;;6.05;4.07;;;;;;;18.68;nan;-13989.28;4993191;28;20640;-58
2023/06/14 03:07:19;;;;;;;5.65;4.05;;;;;;;19.14;nan;-12697.78;4992773;28;20177;-56
2023/06/14 03:09:45;;;;;;;7.75;4.22;;;;;;;19.18;nan;-12698.13;4992561;28;20256;-57
2023/06/14 03:12:11;;;;;;;8.30;4.32;;;;;;;18.89;nan;-14639.34;5001004;28;20267;-57
2023/06/14 03:14:36;;;;;;;8.32;4.88;;;;;;;18.67;nan;-16578.66;4992890;28;20185;-58
2023/06/14 03:17:04;;;;;;;6.75;4.75;;;;;;;18.41;nan;-18191.56;4992901;28;20268;-58
2023/06/14 03:19:30;;;;;;;7.18;5.05;;;;;;;18.54;nan;-18840.50;4992741;28;20581;-57
2023/06/14 03:21:57;;;;;;;10.18;5.32;;;;;;;18.47;nan;-19485.59;4992337;28;20639;-56
2023/06/14 03:24:24;;;;;;;7.30;5.05;;;;;;;18.22;nan;-18511.31;4992824;28;20625;-58
2023/06/14 03:26:49;;;;;;;8.80;5.75;;;;;;;18.47;nan;-19162.41;4993058;28;20227;-57
2023/06/14 03:29:16;;;;;;;8.23;5.53;;;;;;;18.63;nan;-18842.13;4992853;28;20165;-57
2023/06/14 03:31:57;;;;;;;9.55;5.38;;;;;;;18.72;nan;-19167.19;4992701;28;20260;-58
2023/06/14 03:34:23;;;;;;;7.90;5.13;;;;;;;18.43;nan;-19161.63;4992103;28;20184;-58
2023/06/14 03:36:49;;;;;;;6.43;4.85;;;;;;;18.69;nan;-18843.25;4992782;28;20173;-58
2023/06/14 03:39:14;;;;;;;8.45;5.65;;;;;;;18.91;nan;-18847.34;4992192;28;20176;-58
2023/06/14 03:41:40;;;;;;;7.90;5.07;;;;;;;18.81;nan;-18845.44;5000867;28;20243;-57
2023/06/14 03:44:05;;;;;;;8.90;5.20;;;;;;;18.90;nan;-18200.25;4992590;28;20322;-57
2023/06/14 03:46:31;;;;;;;7.32;5.35;;;;;;;19.20;nan;-16586.63;4992563;28;20640;-58
2023/06/14 03:48:57;;;;;;;9.80;5.18;;;;;;;19.17;nan;-17233.84;4990744;28;20180;-57
2023/06/14 03:51:22;;;;;;;7.55;4.93;;;;;;;19.27;nan;-17235.41;4992445;28;20208;-58
2023/06/14 03:53:48;;;;;;;6.95;5.00;;;;;;;19.00;nan;-16583.69;4992483;28;20235;-58
2023/06/14 03:56:13;;;;;;;7.38;5.03;;;;;;;19.28;nan;-17235.56;4991730;28;20176;-58
2023/06/14 03:58:38;;;;;;;7.10;5.00;;;;;;;19.33;nan;-16912.50;4992263;28;20656;-57
2023/06/14 04:01:04;;;;;;;6.78;5.03;;;;;;;19.10;nan;-16908.97;4992258;28;20671;-59
2023/06/14 04:03:29;;;;;;;9.25;5.35;;;;;;;19.33;nan;-16264.78;4992515;28;20255;-57
2023/06/14 04:05:56;;;;;;;7.20;5.03;;;;;;;19.08;nan;-15613.41;4992201;28;20177;-57
2023/06/14 04:08:22;;;;;;;7.07;4.60;;;;;;;19.12;nan;-15289.97;4992088;28;20177;-57
2023/06/14 04:10:47;;;;;;;8.60;5.00;;;;;;;19.54;nan;-15295.50;4993697;28;20199;-58
2023/06/14 04:13:13;;;;;;;8.50;4.95;;;;;;;19.52;nan;-14646.81;4996365;28;20183;-58
2023/06/14 04:15:42;;;;;;;6.82;4.82;;;;;;;19.33;nan;-14320.47;4996135;28;20177;-58
2023/06/14 04:18:08;;;;;;;6.70;4.53;;;;;;;19.42;nan;-13024.53;4996007;28;20177;-58
2023/06/14 04:20:33;;;;;;;8.82;5.00;;;;;;;19.79;nan;-12378.91;4996617;28;20223;-59
2023/06/14 04:23:15;;;;;;;7.95;4.78;;;;;;;19.81;nan;-11729.88;4996365;28;20583;-58
2023/06/14 04:25:40;;;;;;;7.70;4.78;;;;;;;19.62;nan;-11728.47;4996101;28;20176;-59
2023/06/14 04:28:08;;;;;;;6.95;4.70;;;;;;;20.02;nan;-10756.97;4995763;28;20188;-58
2023/06/14 04:30:35;;;;;;;8.32;5.28;;;;;;;19.80;nan;-10755.72;4995936;28;20260;-57
2023/06/14 04:33:05;;;;;;;8.25;5.38;;;;;;;20.22;nan;-10758.09;4995646;28;20197;-57
2023/06/14 04:35:32;;;;;;;6.90;4.65;;;;;;;20.34;nan;-8482.84;4996451;28;20173;-58
2023/06/14 04:37:59;;;;;;;7.60;4.85;;;;;;;20.50;nan;-8808.47;4995836;28;20173;-57
2023/06/14 04:40:24;;;;;;;8.07;4.88;;;;;;;20.59;nan;-8808.69;4995920;28;20191;-58
2023/06/14 04:42:50;;;;;;;8.70;5.18;;;;;;;20.43;nan;-7181.59;4995829;28;20220;-58
2023/06/14 04:45:16;;;;;;;8.40;4.93;;;;;;;20.56;nan;-5228.06;4993724;28;20328;-58
2023/06/14 04:47:43;;;;;;;10.68;5.80;;;;;;;20.53;nan;-6205.00;4977834;28;20325;-58
2023/06/14 04:50:10;;;;;;;7.82;5.30;;;;;;;20.95;nan;-7507.19;4975803;28;20165;-58
2023/06/14 04:52:36;;;;;;;9.43;5.60;;;;;;;21.15;nan;-5552.06;4975692;28;20245;-57
2023/06/14 04:55:03;;;;;;;9.07;5.28;;;;;;;20.93;nan;-3597.06;4975716;28;20203;-58
2023/06/14 04:57:28;;;;;;;8.63;5.80;;;;;;;20.96;nan;-2618.56;4975487;28;20200;-57
2023/06/14 04:59:57;;;;;;;7.60;5.25;;;;;;;21.24;nan;1301.53;4975382;28;20218;-58
2023/06/14 05:02:24;;;;;;;7.90;5.40;;;;;;;21.17;nan;2934.13;4975573;28;20213;-59
2023/06/14 05:04:50;;;;;;;8.85;5.45;;;;;;;21.58;nan;3595.09;4975635;28;20172;-57
2023/06/14 05:07:15;;;;;;;8.43;4.78;;;;;;;21.50;nan;5556.59;4975563;28;20182;-58
2023/06/14 05:09:40;;;;;;;7.28;5.28;;;;;;;21.93;nan;12777.91;4975108;28;20173;-57
2023/06/14 05:12:09;;;;;;;6.88;4.90;;;;;;;21.96;nan;14420.50;4977064;28;20176;-58
2023/06/14 05:14:35;;;;;;;8.02;5.00;;;;;;;21.83;nan;14415.72;4994113;28;20657;-58
2023/06/14 05:17:02;;;;;;;10.15;5.53;;;;;;;22.00;nan;11139.59;4994638;28;20173;-58
2023/06/14 05:19:28;;;;;;;9.52;5.93;;;;;;;21.78;nan;11788.94;4994338;28;20184;-58
2023/06/14 05:21:53;;;;;;;11.25;5.80;;;;;;;22.32;nan;16733.69;4993982;28;20757;-58
2023/06/14 05:24:19;;;;;;;7.07;4.70;;;;;;;22.15;nan;19686.84;4994353;28;20200;-59
2023/06/14 05:26:45;;;;;;;7.47;5.00;;;;;;;22.56;nan;23987.28;4994282;28;20227;-58
2023/06/14 05:29:11;;;;;;;8.00;5.53;;;;;;;22.45;nan;23322.56;4994363;28;20172;-59
2023/06/14 05:31:37;;;;;;;10.27;5.57;;;;;;;22.72;nan;26304.06;4994275;28;20165;-58
2023/06/14 05:34:03;;;;;;;9.63;5.53;;;;;;;22.61;nan;28938.50;4994662;28;20157;-58
2023/06/14 05:36:28;;;;;;;9.45;5.95;;;;;;;22.45;nan;26619.34;4994477;28;20177;-58
2023/06/14 05:38:59;;;;;;;9.20;5.70;;;;;;;22.75;nan;26635.72;4993374;28;20173;-58
2023/06/14 05:41:28;;;;;;;9.38;5.93;;;;;;;22.78;nan;31261.13;4993445;28;20236;-59
2023/06/14 05:43:57;;;;;;;9.35;5.55;;;;;;;23.25;nan;34599.06;4994216;28;20699;-58
2023/06/14 05:46:25;;;;;;;11.65;6.97;;;;;;;23.05;nan;35578.34;4993287;28;20180;-58
2023/06/14 05:48:54;;;;;;;9.90;6.38;;;;;;;23.28;nan;35263.69;4994135;28;20180;-58
2023/06/14 05:51:21;;;;;;;14.32;7.05;;;;;;;23.23;nan;36796.75;4994088;28;20173;-58
2023/06/14 05:53:47;;;;;;;9.48;5.63;;;;;;;23.39;nan;40022.38;4994376;28;20730;-58
2023/06/14 05:56:13;;;;;;;10.68;5.85;;;;;;;23.60;nan;42540.50;4976415;28;20200;-59
2023/06/14 05:58:39;;;;;;;11.15;6.13;;;;;;;23.60;nan;45925.13;4994119;28;20234;-58
2023/06/14 06:01:04;;;;;;;9.35;6.10;;;;;;;23.96;nan;47892.22;4993754;28;20609;-59
2023/06/14 06:03:30;;;;;;;11.50;6.35;;;;;;;23.93;nan;47647.31;4992465;28;20181;-59
2023/06/14 06:05:55;;;;;;;15.55;7.38;;;;;;;23.85;nan;47952.00;4993529;28;20173;-59
2023/06/14 06:08:21;;;;;;;13.48;6.50;;;;;;;24.19;nan;47735.75;4994002;28;20263;-58
2023/06/14 06:10:46;;;;;;;12.68;7.10;;;;;;;23.90;nan;47335.78;4993661;28;20270;-59
2023/06/14 06:13:12;;;;;;;11.98;6.78;;;;;;;23.79;nan;48745.00;4993783;28;20184;-58
2023/06/14 06:15:38;;;;;;;10.20;6.32;;;;;;;24.01;nan;49029.97;4993601;28;20181;-59
2023/06/14 06:18:03;;;;;;;13.48;7.05;;;;;;;24.38;nan;49920.41;4993516;28;20177;-59
2023/06/14 06:20:31;;;;;;;15.88;7.45;;;;;;;24.70;nan;53305.34;4993527;28;20232;-60
2023/06/14 06:22:57;;;;;;;12.07;7.25;;;;;;;24.64;nan;54593.53;4993777;28;20171;-58
2023/06/14 06:25:25;;;;;;;12.75;7.55;;;;;;;25.16;nan;55741.56;4993099;28;20223;-58
2023/06/14 06:27:52;;;;;;;14.60;6.78;;;;;;;25.22;nan;57034.66;4993609;28;20231;-58
2023/06/14 06:30:17;;;;;;;10.68;6.32;;;;;;;25.32;nan;57181.56;4977324;28;20173;-58
2023/06/14 06:32:43;;;;;;;11.63;6.90;;;;;;;25.33;nan;57456.41;4973734;28;20247;-59
2023/06/14 06:35:10;;;;;;;10.65;6.45;;;;;;;25.16;nan;57619.13;4973319;28;20264;-58
2023/06/14 06:37:36;;;;;;;12.82;6.53;;;;;;;25.65;nan;58156.50;4973831;28;20179;-59
2023/06/14 06:40:05;;;;;;;10.75;6.20;;;;;;;25.37;nan;57764.28;4973705;28;20228;-58
2023/06/14 06:42:31;;;;;;;9.18;5.68;;;;;;;25.35;nan;57971.19;4972937;28;20252;-59
2023/06/14 06:44:56;;;;;;;11.10;5.40;;;;;;;24.83;nan;57994.44;4973429;28;20177;-58
2023/06/14 06:47:22;;;;;;;8.82;5.43;;;;;;;24.31;nan;57255.38;4973934;28;20189;-59
2023/06/14 06:49:47;;;;;;;9.55;5.43;;;;;;;24.54;nan;57663.84;4973459;28;20570;-59
2023/06/14 06:52:13;;;;;;;9.90;5.93;;;;;;;24.87;nan;57778.88;4973527;28;20236;-59
2023/06/14 06:54:39;;;;;;;8.95;6.00;;;;;;;24.75;nan;57888.75;4973150;28;20248;-59
2023/06/14 06:57:06;;;;;;;9.85;5.80;;;;;;;24.84;nan;58378.81;4973345;28;20177;-59
2023/06/14 06:59:32;;;;;;;9.98;5.88;;;;;;;25.01;nan;58444.16;4973388;28;20200;-60
2023/06/14 07:01:57;;;;;;;8.50;5.47;;;;;;;24.49;nan;59002.59;4973142;28;20649;-59
2023/06/14 07:04:23;;;;;;;8.88;5.60;;;;;;;24.63;nan;58996.38;4973377;28;20169;-58
2023/06/14 07:06:48;;;;;;;10.80;6.13;;;;;;;24.84;nan;59198.88;4973005;28;20165;-59
2023/06/14 07:09:15;;;;;;;11.90;6.13;;;;;;;24.81;nan;59689.25;4973093;28;20180;-59
2023/06/14 07:11:42;;;;;;;10.52;6.15;;;;;;;24.95;nan;59378.09;4973334;28;20174;-59
2023/06/14 07:14:08;;;;;;;11.15;5.88;;;;;;;25.43;nan;59900.69;4973252;28;20170;-60
2023/06/14 07:16:33;;;;;;;10.80;5.32;;;;;;;25.75;nan;59956.31;4973172;28;20192;-59
2023/06/14 07:19:00;;;;;;;9.45;5.43;;;;;;;26.17;nan;59957.56;4973097;28;20169;-59
2023/06/14 07:21:28;;;;;;;16.60;5.63;;;;;;;26.52;nan;60378.06;4972832;28;20213;-58
2023/06/14 07:23:54;;;;;;;8.93;5.32;;;;;;;26.67;nan;62276.75;4973178;28;20225;-60
2023/06/14 07:26:19;;;;;;;9.52;5.25;;;;;;;26.02;nan;62138.34;4973072;28;20601;-59
2023/06/14 07:28:46;;;;;;;9.43;5.88;;;;;;;25.87;nan;62144.84;4973128;28;20523;-58
2023/06/14 07:31:12;;;;;;;8.80;4.95;;;;;;;26.10;nan;62286.28;4973022;28;20598;-59
2023/06/14 07:33:38;;;;;;;10.13;5.93;;;;;;;26.44;nan;62373.75;4972169;28;20252;-59
2023/06/14 07:36:03;;;;;;;8.93;5.75;;;;;;;26.53;nan;62350.50;4972308;28;20185;-59
2023/06/14 07:38:29;;;;;;;8.05;5.38;;;;;;;26.86;nan;62476.81;4972672;28;20177;-59
2023/06/14 07:40:54;;;;;;;11.32;6.55;;;;;;;26.12;nan;62293.25;4972086;28;20236;-59
2023/06/14 07:43:20;;;;;;;10.93;7.00;;;;;;;25.36;nan;62153.34;4972534;28;20527;-58
2023/06/14 07:45:45;;;;;;;10.10;6.70;;;;;;;25.76;nan;62257.97;4972418;28;20178;-58
2023/06/14 07:48:11;;;;;;;12.90;7.00;;;;;;;25.32;nan;62188.03;4972460;28;20185;-60
2023/06/14 07:50:36;;;;;;;12.48;6.78;;;;;;;25.32;nan;62227.28;4972509;28;20228;-59
2023/06/14 07:53:02;;;;;;;10.98;6.50;;;;;;;25.06;nan;62147.97;4972099;28;20173;-58
2023/06/14 07:55:28;;;;;;;8.60;5.97;;;;;;;24.95;nan;62130.19;4971657;28;20177;-59
2023/06/14 07:57:54;;;;;;;13.82;6.95;;;;;;;24.53;nan;62088.75;4972337;28;20161;-59
2023/06/14 08:00:20;;;;;;;16.50;7.43;;;;;;;24.29;nan;62019.06;4972318;28;20173;-59
2023/06/14 08:02:46;;;;;;;11.13;7.07;;;;;;;24.75;nan;62076.63;4972542;28;20173;-59
2023/06/14 08:05:12;;;;;;;10.27;6.20;;;;;;;24.67;nan;62088.41;4972504;28;20181;-59
2023/06/14 08:07:39;;;;;;;10.82;7.22;;;;;;;24.86;nan;62293.06;4972390;28;20180;-59
2023/06/14 08:10:07;;;;;;;10.75;6.50;;;;;;;25.53;nan;62201.47;4972431;28;20742;-59
2023/06/14 08:12:34;;;;;;;12.55;6.90;;;;;;;25.70;nan;62293.63;4972456;28;20212;-59
2023/06/14 08:15:00;;;;;;;9.93;6.60;;;;;;;26.10;nan;62390.50;4972439;28;20181;-60
2023/06/14 08:17:26;;;;;;;11.07;6.55;;;;;;;26.47;nan;62440.06;4972088;28;20172;-61
2023/06/14 08:19:57;;;;;;;9.05;6.85;;;;;;;26.00;nan;62405.25;4972471;28;20173;-59
2023/06/14 08:22:24;;;;;;;16.35;6.82;;;;;;;26.37;nan;62469.09;4972397;28;20275;-59
2023/06/14 08:24:49;;;;;;;10.32;6.60;;;;;;;26.24;nan;62454.25;4972587;28;20181;-59
2023/06/14 08:27:15;;;;;;;11.70;7.22;;;;;;;25.94;nan;62367.56;4972160;28;20196;-58
2023/06/14 08:29:41;;;;;;;11.40;7.18;;;;;;;25.53;nan;62314.03;4971670;28;20181;-58
2023/06/14 08:32:07;;;;;;;9.30;6.10;;;;;;;26.05;nan;62422.03;4998914;28;20682;-60
2023/06/14 08:34:32;;;;;;;12.55;7.25;;;;;;;25.49;nan;62356.00;4991178;28;20204;-58
2023/06/14 08:36:57;;;;;;;11.90;7.15;;;;;;;25.37;nan;62311.47;4991682;28;20173;-59
2023/06/14 08:39:23;;;;;;;11.65;7.70;;;;;;;25.87;nan;62411.94;4991428;28;20173;-59
2023/06/14 08:41:50;;;;;;;11.20;7.60;;;;;;;26.04;nan;62436.59;4991228;28;20228;-58
2023/06/14 08:44:16;;;;;;;9.88;6.82;;;;;;;26.67;nan;62523.25;4991274;28;20259;-59
2023/06/14 08:46:42;;;;;;;12.85;6.97;;;;;;;26.69;nan;62486.19;4989729;28;20191;-59
2023/06/14 08:49:11;;;;;;;9.30;6.60;;;;;;;26.80;nan;62580.06;4991262;28;20264;-58
2023/06/14 08:51:37;;;;;;;10.55;6.70;;;;;;;27.31;nan;62609.03;4989863;28;20169;-59
2023/06/14 08:54:03;;;;;;;10.38;6.90;;;;;;;27.37;nan;62634.28;4992541;28;20252;-58
2023/06/14 08:56:30;;;;;;;11.57;7.60;;;;;;;27.55;nan;62877.56;4992395;28;20169;-58
2023/06/14 08:59:03;;;;;;;12.38;7.50;;;;;;;26.72;nan;62531.59;4995426;28;20176;-57
2023/06/14 09:01:31;;;;;;;11.57;7.28;;;;;;;27.11;nan;62568.34;4995114;28;20204;-59
2023/06/14 09:03:57;;;;;;;12.07;6.97;;;;;;;27.58;nan;62691.91;4994981;28;20723;-60
2023/06/14 09:06:24;;;;;;;10.68;7.07;;;;;;;27.19;nan;62632.06;4995652;28;20176;-58
2023/06/14 09:08:50;;;;;;;12.10;7.35;;;;;;;28.03;nan;62756.63;4995043;28;20172;-59
2023/06/14 09:11:19;;;;;;;10.07;7.05;;;;;;;28.09;nan;62774.03;4995815;28;20173;-58
2023/06/14 09:13:45;;;;;;;9.65;6.50;;;;;;;27.58;nan;62700.38;4994943;28;20215;-59
2023/06/14 09:16:11;;;;;;;12.60;7.30;;;;;;;27.29;nan;62666.53;4994425;28;20173;-57
2023/06/14 09:18:43;;;;;;;11.43;7.80;;;;;;;26.86;nan;62613.19;4995174;28;20525;-58
2023/06/14 09:21:09;;;;;;;11.50;7.35;;;;;;;26.82;nan;62645.88;4994958;28;20196;-57
2023/06/14 09:23:38;;;;;;;9.70;7.10;;;;;;;26.70;nan;62589.59;4995045;28;20173;-58
2023/06/14 09:26:17;;;;;;;14.13;7.88;;;;;;;27.25;nan;62589.03;4994967;28;20207;-58
2023/06/14 09:28:44;;;;;;;10.35;7.07;;;;;;;27.31;nan;62669.41;4994544;28;20176;-57
2023/06/14 09:31:14;;;;;;;12.05;8.10;;;;;;;27.51;nan;62729.13;4994463;28;20177;-58
2023/06/14 09:33:50;;;;;;;10.32;6.30;;;;;;;27.34;nan;62682.78;4994202;28;20226;-59
2023/06/14 09:36:22;;;;;;;11.13;7.43;;;;;;;27.54;nan;62726.72;4994309;28;20179;-58
2023/06/14 09:38:59;;;;;;;10.27;7.20;;;;;;;27.78;nan;62793.66;4994509;28;20632;-57
2023/06/14 09:41:39;;;;;;;10.38;6.95;;;;;;;28.38;nan;62824.59;4994126;28;20928;-58
2023/06/14 09:44:07;;;;;;;10.70;7.07;;;;;;;28.42;nan;62832.38;4994521;28;20175;-58
2023/06/14 09:46:34;;;;;;;9.90;6.82;;;;;;;28.23;nan;62836.88;4994328;28;20168;-58
2023/06/14 09:49:00;;;;;;;10.80;6.75;;;;;;;28.78;nan;63094.19;4994268;28;20682;-58
2023/06/14 09:51:27;;;;;;;11.02;7.25;;;;;;;28.90;nan;62923.22;4993815;28;20172;-57
2023/06/14 09:53:55;;;;;;;10.02;6.63;;;;;;;29.06;nan;62988.41;4993932;28;20262;-58
2023/06/14 09:56:31;;;;;;;11.35;6.88;;;;;;;29.32;nan;62984.66;4993660;28;20472;-58
2023/06/14 09:58:59;;;;;;;11.63;7.28;;;;;;;28.84;nan;62977.41;4994237;28;20569;-58
2023/06/14 10:01:29;;;;;;;8.93;6.78;;;;;;;29.16;nan;62952.50;4994080;28;20702;-57
2023/06/14 10:04:03;;;;;;;13.55;7.28;;;;;;;28.96;nan;62938.00;4994083;28;20602;-59
2023/06/14 10:06:29;;;;;;;11.95;7.47;;;;;;;29.09;nan;62962.88;4994229;28;20204;-59
2023/06/14 10:08:59;;;;;;;10.25;6.70;;;;;;;29.36;nan;62972.88;4992720;28;20180;-58
2023/06/14 10:11:26;;;;;;;10.75;6.75;;;;;;;29.74;nan;63073.97;4993679;28;20666;-57
2023/06/14 10:13:52;;;;;;;9.48;6.43;;;;;;;29.96;nan;63104.00;4993745;28;20184;-58
2023/06/14 10:16:24;;;;;;;10.05;6.70;;;;;;;29.93;nan;63137.44;4993753;28;20255;-58
2023/06/14 10:19:07;;;;;;;9.75;6.97;;;;;;;30.31;nan;63144.31;4993545;28;20183;-58
2023/06/14 10:22:17;;;;;;;10.25;6.90;;;;;;;29.53;nan;63142.00;4993264;28;20215;-57
2023/06/14 10:24:44;;;;;;;10.55;7.53;;;;;;;29.42;nan;63004.06;4914019;29;20193;-58
2023/06/14 10:27:12;;;;;;;10.63;7.13;;;;;;;29.67;nan;63023.75;4913960;29;20725;-59
2023/06/14 10:29:53;;;;;;;10.75;7.60;;;;;;;29.48;nan;62978.19;4952825;28;20212;-58
2023/06/14 10:32:19;;;;;;;12.63;7.53;;;;;;;29.34;nan;63002.19;4993451;28;20258;-58
2023/06/14 10:34:45;;;;;;;9.90;6.68;;;;;;;29.99;nan;63057.38;4993380;28;20750;-57
2023/06/14 10:37:14;;;;;;;9.77;7.30;;;;;;;30.41;nan;63132.06;4993176;28;20172;-59
2023/06/14 10:39:47;;;;;;;10.82;7.20;;;;;;;30.70;nan;63149.63;4993401;28;20180;-58
2023/06/14 10:42:14;;;;;;;11.43;7.40;;;;;;;30.81;nan;63246.22;4993264;28;20310;-58
2023/06/14 10:44:45;;;;;;;10.13;7.30;;;;;;;30.91;nan;63214.91;4992975;28;20195;-57
2023/06/14 10:47:35;;;;;;;9.45;6.75;;;;;;;31.10;nan;63258.56;4992926;28;20208;-59
2023/06/14 10:50:06;;;;;;;11.18;7.40;;;;;;;30.57;nan;63203.28;4992668;28;20184;-58
2023/06/14 10:52:39;;;;;;;12.00;7.45;;;;;;;30.92;nan;63271.53;4993471;28;20191;-58
2023/06/14 10:55:16;;;;;;;9.75;6.93;;;;;;;30.83;nan;63259.09;4993447;28;20172;-57
2023/06/14 10:57:43;;;;;;;11.35;7.22;;;;;;;30.92;nan;63187.03;4993042;28;20180;-58
2023/06/14 11:00:16;;;;;;;10.13;6.82;;;;;;;30.43;nan;63176.56;4992812;28;20706;-58
2023/06/14 11:02:54;;;;;;;11.25;7.28;;;;;;;30.56;nan;63143.53;4993702;28;20215;-58
2023/06/14 11:05:29;;;;;;;10.50;6.90;;;;;;;30.36;nan;63109.91;4993127;28;20195;-58
2023/06/14 11:08:13;;;;;;;9.93;6.25;;;;;;;30.74;nan;63237.56;4992740;28;20168;-58
2023/06/14 11:10:41;;;;;;;10.55;6.40;;;;;;;30.57;nan;63166.34;4992688;28;20671;-58
2023/06/14 11:13:07;;;;;;;10.48;7.07;;;;;;;30.62;nan;63195.28;4993326;28;20184;-60
2023/06/14 11:15:34;;;;;;;8.85;6.20;;;;;;;30.97;nan;63248.25;4993199;28;20168;-59
2023/06/14 11:18:02;;;;;;;9.50;6.80;;;;;;;30.27;nan;63137.63;4975530;28;20180;-57
2023/06/14 11:20:30;;;;;;;10.90;7.10;;;;;;;30.33;nan;63175.06;4992433;28;20244;-58
2023/06/14 11:22:55;;;;;;;9.98;6.63;;;;;;;30.09;nan;63132.16;4992854;28;20574;-58
2023/06/14 11:25:21;;;;;;;8.07;5.97;;;;;;;29.89;nan;63099.16;4992161;28;20718;-57
2023/06/14 11:27:50;;;;;;;9.15;6.55;;;;;;;30.29;nan;63176.84;4993131;28;20182;-57
2023/06/14 11:30:16;;;;;;;8.45;5.88;;;;;;;30.04;nan;63142.22;4992644;28;20172;-58
2023/06/14 11:32:42;;;;;;;10.82;7.38;;;;;;;29.93;nan;63103.75;4992363;28;20258;-57
2023/06/14 11:35:09;;;;;;;9.15;6.45;;;;;;;29.42;nan;63027.19;4992442;28;20586;-58
2023/06/14 11:37:36;;;;;;;8.57;6.03;;;;;;;29.73;nan;63057.56;4992216;28;20215;-60
2023/06/14 11:40:07;;;;;;;8.85;6.45;;;;;;;29.85;nan;63066.13;4991751;28;20640;-58
2023/06/14 11:42:33;;;;;;;13.27;7.65;;;;;;;29.74;nan;63090.34;4992584;28;20236;-58
2023/06/14 11:44:59;;;;;;;10.57;7.07;;;;;;;30.00;nan;63113.88;4992800;28;20188;-61